sensor_id;sensor_type;location;lat;lon;timestamp;pressure;altitude;pressure_sealevel;temperature;humidity
59190;BME280;50749;51.636;4.948;2024-01-30T00:02:22;102656.56;;;16.35;58.71
59190;BME280;50749;51.636;4.948;2024-01-30T00:04:51;102650.53;;;16.33;58.50
59190;BME280;50749;51.636;4.948;2024-01-30T00:07:20;102647.78;;;16.33;58.35
59190;BME280;50749;51.636;4.948;2024-01-30T00:09:51;102654.44;;;16.32;58.74
59190;BME280;50749;51.636;4.948;2024-01-30T00:12:20;102642.84;;;16.30;58.42
59190;BME280;50749;51.636;4.948;2024-01-30T00:14:49;102639.28;;;16.30;58.76
59190;BME280;50749;51.636;4.948;2024-01-30T00:17:17;102639.28;;;16.30;58.62
59190;BME280;50749;51.636;4.948;2024-01-30T00:19:46;102639.59;;;16.28;58.52
59190;BME280;50749;51.636;4.948;2024-01-30T00:22:15;102636.03;;;16.28;58.48
59190;BME280;50749;51.636;4.948;2024-01-30T00:24:44;102625.28;;;16.26;58.68
59190;BME280;50749;51.636;4.948;2024-01-30T00:27:15;102629.16;;;16.25;58.52
59190;BME280;50749;51.636;4.948;2024-01-30T00:29:45;102617.31;;;16.25;58.36
59190;BME280;50749;51.636;4.948;2024-01-30T00:32:13;102618.41;;;16.24;58.64
59190;BME280;50749;51.636;4.948;2024-01-30T00:34:42;102618.72;;;16.22;58.27
59190;BME280;50749;51.636;4.948;2024-01-30T00:37:10;102608.81;;;16.21;58.44
59190;BME280;50749;51.636;4.948;2024-01-30T00:39:39;102614.34;;;16.21;58.55
59190;BME280;50749;51.636;4.948;2024-01-30T00:42:08;102612.69;;;16.20;58.71
59190;BME280;50749;51.636;4.948;2024-01-30T00:44:40;102622.09;;;16.19;58.37
59190;BME280;50749;51.636;4.948;2024-01-30T00:47:08;102623.22;;;16.18;58.65
59190;BME280;50749;51.636;4.948;2024-01-30T00:49:37;102616.88;;;16.18;58.63
59190;BME280;50749;51.636;4.948;2024-01-30T00:52:05;102621.56;;;16.17;58.29
59190;BME280;50749;51.636;4.948;2024-01-30T00:54:35;102625.47;;;16.16;58.31
59190;BME280;50749;51.636;4.948;2024-01-30T00:57:03;102611.97;;;16.14;58.70
59190;BME280;50749;51.636;4.948;2024-01-30T00:59:33;102615.53;;;16.15;58.35
59190;BME280;50749;51.636;4.948;2024-01-30T01:02:04;102610.31;;;16.13;58.62
59190;BME280;50749;51.636;4.948;2024-01-30T01:04:33;102605.94;;;16.12;58.47
59190;BME280;50749;51.636;4.948;2024-01-30T01:07:01;102607.06;;;16.11;58.51
59190;BME280;50749;51.636;4.948;2024-01-30T01:09:30;102612.56;;;16.11;58.57
59190;BME280;50749;51.636;4.948;2024-01-30T01:11:59;102606.25;;;16.11;58.46
59190;BME280;50749;51.636;4.948;2024-01-30T01:14:28;102606.53;;;16.09;58.53
59190;BME280;50749;51.636;4.948;2024-01-30T01:16:56;102609.28;;;16.09;58.33
59190;BME280;50749;51.636;4.948;2024-01-30T01:19:28;102612.34;;;16.08;58.58
59190;BME280;50749;51.636;4.948;2024-01-30T01:21:56;102597.75;;;16.07;58.65
59190;BME280;50749;51.636;4.948;2024-01-30T01:24:25;102601.31;;;16.08;58.48
59190;BME280;50749;51.636;4.948;2024-01-30T01:26:54;102604.38;;;16.06;58.29
59190;BME280;50749;51.636;4.948;2024-01-30T01:29:23;102601.63;;;16.06;58.43
59190;BME280;50749;51.636;4.948;2024-01-30T01:31:54;102597.22;;;16.05;58.67
59190;BME280;50749;51.636;4.948;2024-01-30T01:34:24;102590.88;;;16.05;58.45
59190;BME280;50749;51.636;4.948;2024-01-30T01:36:55;102593.94;;;16.03;58.36
59190;BME280;50749;51.636;4.948;2024-01-30T01:39:24;102593.13;;;16.03;58.21
59190;BME280;50749;51.636;4.948;2024-01-30T01:41:52;102589.56;;;16.02;58.32
59190;BME280;50749;51.636;4.948;2024-01-30T01:44:21;102591.50;;;16.02;58.26
59190;BME280;50749;51.636;4.948;2024-01-30T01:46:51;102585.16;;;16.01;58.49
59190;BME280;50749;51.636;4.948;2024-01-30T01:49:20;102587.91;;;16.01;58.46
59190;BME280;50749;51.636;4.948;2024-01-30T01:51:50;102587.41;;;15.99;58.29
59190;BME280;50749;51.636;4.948;2024-01-30T01:54:25;102588.22;;;16.00;58.63
59190;BME280;50749;51.636;4.948;2024-01-30T01:56:55;102583.81;;;15.98;58.54
59190;BME280;50749;51.636;4.948;2024-01-30T01:59:24;102590.16;;;15.99;58.44
59190;BME280;50749;51.636;4.948;2024-01-30T02:01:55;102585.25;;;15.96;58.55
59190;BME280;50749;51.636;4.948;2024-01-30T02:04:24;102591.56;;;15.96;58.24
59190;BME280;50749;51.636;4.948;2024-01-30T02:06:53;102592.72;;;15.95;58.18
59190;BME280;50749;51.636;4.948;2024-01-30T02:09:22;102597.41;;;15.95;58.25
59190;BME280;50749;51.636;4.948;2024-01-30T02:11:53;102590.56;;;15.92;58.42
59190;BME280;50749;51.636;4.948;2024-01-30T02:14:22;102588.59;;;15.93;58.26
59190;BME280;50749;51.636;4.948;2024-01-30T02:16:51;102587.78;;;15.92;58.33
59190;BME280;50749;51.636;4.948;2024-01-30T02:19:20;102580.63;;;15.91;58.37
59190;BME280;50749;51.636;4.948;2024-01-30T02:21:51;102577.88;;;15.91;58.58
59190;BME280;50749;51.636;4.948;2024-01-30T02:24:21;102576.25;;;15.90;58.54
59190;BME280;50749;51.636;4.948;2024-01-30T02:26:49;102579.00;;;15.90;58.27
59190;BME280;50749;51.636;4.948;2024-01-30T02:29:18;102576.56;;;15.89;58.54
59190;BME280;50749;51.636;4.948;2024-01-30T02:31:47;102568.59;;;15.87;58.55
59190;BME280;50749;51.636;4.948;2024-01-30T02:34:16;102568.59;;;15.87;58.27
59190;BME280;50749;51.636;4.948;2024-01-30T02:36:45;102558.66;;;15.86;58.35
59190;BME280;50749;51.636;4.948;2024-01-30T02:39:17;102561.41;;;15.86;58.47
59190;BME280;50749;51.636;4.948;2024-01-30T02:41:45;102557.00;;;15.85;58.42
59190;BME280;50749;51.636;4.948;2024-01-30T02:44:14;102554.25;;;15.85;58.52
59190;BME280;50749;51.636;4.948;2024-01-30T02:46:43;102552.63;;;15.84;58.40
59190;BME280;50749;51.636;4.948;2024-01-30T02:49:12;102552.63;;;15.84;58.44
59190;BME280;50749;51.636;4.948;2024-01-30T02:51:41;102533.63;;;15.83;58.65
59190;BME280;50749;51.636;4.948;2024-01-30T02:54:10;102543.00;;;15.82;58.28
59190;BME280;50749;51.636;4.948;2024-01-30T02:56:41;102548.53;;;15.82;58.44
59190;BME280;50749;51.636;4.948;2024-01-30T02:59:10;102561.50;;;15.81;58.44
59190;BME280;50749;51.636;4.948;2024-01-30T03:01:42;102557.94;;;15.81;58.63
59190;BME280;50749;51.636;4.948;2024-01-30T03:04:12;102556.28;;;15.79;58.24
59190;BME280;50749;51.636;4.948;2024-01-30T03:06:44;102554.66;;;15.78;58.63
59190;BME280;50749;51.636;4.948;2024-01-30T03:09:15;102563.75;;;15.79;58.57
59190;BME280;50749;51.636;4.948;2024-01-30T03:11:46;102570.38;;;15.78;58.45
59190;BME280;50749;51.636;4.948;2024-01-30T03:14:15;102567.31;;;15.79;58.62
59190;BME280;50749;51.636;4.948;2024-01-30T03:16:43;102560.47;;;15.77;58.55
59190;BME280;50749;51.636;4.948;2024-01-30T03:19:12;102558.84;;;15.76;58.33
59190;BME280;50749;51.636;4.948;2024-01-30T03:21:41;102567.09;;;15.76;58.62
59190;BME280;50749;51.636;4.948;2024-01-30T03:24:10;102557.16;;;15.75;58.41
59190;BME280;50749;51.636;4.948;2024-01-30T03:26:38;102559.09;;;15.74;58.38
59190;BME280;50749;51.636;4.948;2024-01-30T03:29:10;102558.28;;;15.74;58.77
59190;BME280;50749;51.636;4.948;2024-01-30T03:31:39;102556.66;;;15.73;58.43
59190;BME280;50749;51.636;4.948;2024-01-30T03:34:07;102558.28;;;15.74;58.57
59190;BME280;50749;51.636;4.948;2024-01-30T03:36:36;102555.03;;;15.72;58.68
59190;BME280;50749;51.636;4.948;2024-01-30T03:39:05;102563.28;;;15.72;58.56
59190;BME280;50749;51.636;4.948;2024-01-30T03:41:34;102563.28;;;15.72;58.70
59190;BME280;50749;51.636;4.948;2024-01-30T03:44:03;102559.69;;;15.71;58.67
59190;BME280;50749;51.636;4.948;2024-01-30T03:46:34;102555.31;;;15.70;58.54
59190;BME280;50749;51.636;4.948;2024-01-30T03:49:03;102557.25;;;15.70;58.42
59190;BME280;50749;51.636;4.948;2024-01-30T03:51:31;102551.72;;;15.70;58.54
59190;BME280;50749;51.636;4.948;2024-01-30T03:54:00;102541.00;;;15.68;58.35
59190;BME280;50749;51.636;4.948;2024-01-30T03:56:29;102537.44;;;15.68;58.46
59190;BME280;50749;51.636;4.948;2024-01-30T03:58:58;102533.88;;;15.67;58.76
59190;BME280;50749;51.636;4.948;2024-01-30T04:01:28;102528.34;;;15.67;58.68
59190;BME280;50749;51.636;4.948;2024-01-30T04:03:59;102539.69;;;15.66;58.75
59190;BME280;50749;51.636;4.948;2024-01-30T04:06:28;102542.44;;;15.66;58.67
59190;BME280;50749;51.636;4.948;2024-01-30T04:08:57;102545.19;;;15.66;58.57
59190;BME280;50749;51.636;4.948;2024-01-30T04:11:25;102546.28;;;15.65;58.63
59190;BME280;50749;51.636;4.948;2024-01-30T04:13:54;102546.81;;;15.67;58.48
59190;BME280;50749;51.636;4.948;2024-01-30T04:16:23;102547.66;;;15.67;58.51
59190;BME280;50749;51.636;4.948;2024-01-30T04:18:52;102543.44;;;15.70;58.77
59190;BME280;50749;51.636;4.948;2024-01-30T04:21:23;102535.72;;;15.72;58.51
59190;BME280;50749;51.636;4.948;2024-01-30T04:23:53;102538.41;;;15.77;58.67
59190;BME280;50749;51.636;4.948;2024-01-30T04:26:22;102546.59;;;15.82;58.97
59190;BME280;50749;51.636;4.948;2024-01-30T04:28:51;102537.41;;;15.87;58.64
59190;BME280;50749;51.636;4.948;2024-01-30T04:31:19;102536.19;;;15.93;58.86
59190;BME280;50749;51.636;4.948;2024-01-30T04:33:48;102531.72;;;15.97;58.68
59190;BME280;50749;51.636;4.948;2024-01-30T04:36:17;102530.00;;;16.01;58.70
59190;BME280;50749;51.636;4.948;2024-01-30T04:38:48;102529.09;;;16.06;58.84
59190;BME280;50749;51.636;4.948;2024-01-30T04:41:17;102527.34;;;16.10;58.74
59190;BME280;50749;51.636;4.948;2024-01-30T04:43:45;102525.63;;;16.14;58.58
59190;BME280;50749;51.636;4.948;2024-01-30T04:46:14;102522.22;;;16.17;58.69
59190;BME280;50749;51.636;4.948;2024-01-30T04:48:43;102516.94;;;16.21;58.54
59190;BME280;50749;51.636;4.948;2024-01-30T04:51:12;102518.25;;;16.23;58.78
59190;BME280;50749;51.636;4.948;2024-01-30T04:53:40;102512.13;;;16.26;58.74
59190;BME280;50749;51.636;4.948;2024-01-30T04:56:12;102536.38;;;16.29;58.65
59190;BME280;50749;51.636;4.948;2024-01-30T04:58:40;102531.84;;;16.33;58.38
59190;BME280;50749;51.636;4.948;2024-01-30T05:01:09;102524.91;;;16.36;58.65
59190;BME280;50749;51.636;4.948;2024-01-30T05:03:38;102530.63;;;16.40;58.68
59190;BME280;50749;51.636;4.948;2024-01-30T05:06:06;102519.28;;;16.41;58.58
59190;BME280;50749;51.636;4.948;2024-01-30T05:08:35;102511.22;;;16.45;58.55
59190;BME280;50749;51.636;4.948;2024-01-30T05:11:05;102511.72;;;16.47;58.64
59190;BME280;50749;51.636;4.948;2024-01-30T05:13:37;102522.16;;;16.50;58.48
59190;BME280;50749;51.636;4.948;2024-01-30T05:16:06;102519.09;;;16.51;58.62
59190;BME280;50749;51.636;4.948;2024-01-30T05:18:35;102513.25;;;16.53;58.61
59190;BME280;50749;51.636;4.948;2024-01-30T05:21:05;102510.19;;;16.55;58.56
59190;BME280;50749;51.636;4.948;2024-01-30T05:23:34;102519.78;;;16.57;58.56
59190;BME280;50749;51.636;4.948;2024-01-30T05:26:03;102509.25;;;16.59;58.61
59190;BME280;50749;51.636;4.948;2024-01-30T05:28:32;102506.16;;;16.61;58.50
59190;BME280;50749;51.636;4.948;2024-01-30T05:31:03;102515.81;;;16.63;58.59
59190;BME280;50749;51.636;4.948;2024-01-30T05:33:32;102512.44;;;16.66;58.56
59190;BME280;50749;51.636;4.948;2024-01-30T05:36:01;102516.19;;;16.70;58.73
59190;BME280;50749;51.636;4.948;2024-01-30T05:38:30;102500.97;;;16.73;58.65
59190;BME280;50749;51.636;4.948;2024-01-30T05:40:59;102502.28;;;16.76;58.56
59190;BME280;50749;51.636;4.948;2024-01-30T05:43:28;102502.78;;;16.78;58.52
59190;BME280;50749;51.636;4.948;2024-01-30T05:45:56;102514.34;;;16.80;58.21
59190;BME280;50749;51.636;4.948;2024-01-30T05:48:28;102518.94;;;16.84;58.62
59190;BME280;50749;51.636;4.948;2024-01-30T05:50:56;102518.13;;;16.84;58.49
59190;BME280;50749;51.636;4.948;2024-01-30T05:53:25;102522.25;;;16.86;58.19
59190;BME280;50749;51.636;4.948;2024-01-30T05:55:54;102518.03;;;16.89;58.12
59190;BME280;50749;51.636;4.948;2024-01-30T05:58:23;102519.97;;;16.88;58.26
59190;BME280;50749;51.636;4.948;2024-01-30T06:00:52;102525.50;;;16.88;58.67
59190;BME280;50749;51.636;4.948;2024-01-30T06:03:21;102541.78;;;16.90;59.14
59190;BME280;50749;51.636;4.948;2024-01-30T06:05:52;102540.63;;;16.91;58.62
59190;BME280;50749;51.636;4.948;2024-01-30T06:08:21;102540.63;;;16.91;58.86
59190;BME280;50749;51.636;4.948;2024-01-30T06:10:49;102534.50;;;16.94;58.98
59190;BME280;50749;51.636;4.948;2024-01-30T06:13:18;102532.88;;;16.93;58.84
59190;BME280;50749;51.636;4.948;2024-01-30T06:15:47;102528.97;;;16.94;59.00
59190;BME280;50749;51.636;4.948;2024-01-30T06:18:16;102521.19;;;16.96;59.19
59190;BME280;50749;51.636;4.948;2024-01-30T06:20:44;102522.81;;;16.97;59.28
59190;BME280;50749;51.636;4.948;2024-01-30T06:23:16;102537.66;;;17.01;59.15
59190;BME280;50749;51.636;4.948;2024-01-30T06:25:44;102550.34;;;17.02;59.36
59190;BME280;50749;51.636;4.948;2024-01-30T06:28:13;102554.56;;;17.00;59.29
59190;BME280;50749;51.636;4.948;2024-01-30T06:30:42;102558.44;;;16.99;59.36
59190;BME280;50749;51.636;4.948;2024-01-30T06:33:12;102557.00;;;17.01;59.43
59190;BME280;50749;51.636;4.948;2024-01-30T06:35:41;102554.56;;;17.00;59.21
59190;BME280;50749;51.636;4.948;2024-01-30T06:38:11;102550.03;;;17.04;59.60
59190;BME280;50749;51.636;4.948;2024-01-30T06:40:43;102552.47;;;17.05;59.54
59190;BME280;50749;51.636;4.948;2024-01-30T06:43:12;102558.81;;;17.06;59.57
59190;BME280;50749;51.636;4.948;2024-01-30T06:45:41;102555.44;;;17.09;59.13
59190;BME280;50749;51.636;4.948;2024-01-30T06:48:10;102566.19;;;17.11;59.19
59190;BME280;50749;51.636;4.948;2024-01-30T06:50:38;102567.84;;;17.12;59.48
59190;BME280;50749;51.636;4.948;2024-01-30T06:53:07;102563.41;;;17.11;59.23
59190;BME280;50749;51.636;4.948;2024-01-30T06:55:36;102574.47;;;17.11;59.53
59190;BME280;50749;51.636;4.948;2024-01-30T06:58:07;102573.34;;;17.12;59.65
59190;BME280;50749;51.636;4.948;2024-01-30T07:00:36;102582.25;;;17.08;59.22
59190;BME280;50749;51.636;4.948;2024-01-30T07:03:05;102580.31;;;17.09;59.60
59190;BME280;50749;51.636;4.948;2024-01-30T07:05:33;102579.19;;;17.10;59.59
59190;BME280;50749;51.636;4.948;2024-01-30T07:08:03;102585.53;;;17.11;59.59
59190;BME280;50749;51.636;4.948;2024-01-30T07:10:32;102584.41;;;17.12;59.42
59190;BME280;50749;51.636;4.948;2024-01-30T07:13:02;102584.41;;;17.12;59.44
59190;BME280;50749;51.636;4.948;2024-01-30T07:15:34;102588.59;;;17.09;59.95
59190;BME280;50749;51.636;4.948;2024-01-30T07:18:04;102593.81;;;17.11;59.66
59190;BME280;50749;51.636;4.948;2024-01-30T07:20:33;102598.03;;;17.08;59.79
59190;BME280;50749;51.636;4.948;2024-01-30T07:23:02;102596.69;;;17.05;59.75
59190;BME280;50749;51.636;4.948;2024-01-30T07:25:30;102604.19;;;17.05;59.72
59190;BME280;50749;51.636;4.948;2024-01-30T07:28:03;102606.41;;;17.03;59.62
59190;BME280;50749;51.636;4.948;2024-01-30T07:30:34;102603.63;;;17.03;59.92
59190;BME280;50749;51.636;4.948;2024-01-30T07:33:03;102616.16;;;17.00;59.88
59190;BME280;50749;51.636;4.948;2024-01-30T07:35:32;102607.06;;;17.00;59.66
59190;BME280;50749;51.636;4.948;2024-01-30T07:38:01;102612.34;;;16.96;59.64
59190;BME280;50749;51.636;4.948;2024-01-30T07:40:29;102613.50;;;16.95;59.81
59190;BME280;50749;51.636;4.948;2024-01-30T07:42:59;102618.22;;;16.95;59.72
59190;BME280;50749;51.636;4.948;2024-01-30T07:45:29;102619.03;;;16.95;59.64
59190;BME280;50749;51.636;4.948;2024-01-30T07:48:01;102617.38;;;16.94;59.68
59190;BME280;50749;51.636;4.948;2024-01-30T07:50:30;102621.28;;;16.93;59.89
59190;BME280;50749;51.636;4.948;2024-01-30T07:53:00;102617.69;;;16.93;59.67
59190;BME280;50749;51.636;4.948;2024-01-30T07:55:29;102617.16;;;16.90;59.61
59190;BME280;50749;51.636;4.948;2024-01-30T07:57:58;102620.25;;;16.89;60.05
59190;BME280;50749;51.636;4.948;2024-01-30T08:00:27;102608.69;;;16.87;59.63
59190;BME280;50749;51.636;4.948;2024-01-30T08:02:57;102609.00;;;16.85;59.96
59190;BME280;50749;51.636;4.948;2024-01-30T08:05:29;102618.41;;;16.84;59.62
59190;BME280;50749;51.636;4.948;2024-01-30T08:07:57;102624.75;;;16.85;59.56
59190;BME280;50749;51.636;4.948;2024-01-30T08:10:26;102620.31;;;16.84;59.50
59190;BME280;50749;51.636;4.948;2024-01-30T08:12:55;102617.03;;;16.82;59.57
59190;BME280;50749;51.636;4.948;2024-01-30T08:15:24;102621.75;;;16.81;59.48
59190;BME280;50749;51.636;4.948;2024-01-30T08:17:52;102622.38;;;16.78;59.42
59190;BME280;50749;51.636;4.948;2024-01-30T08:20:24;102629.81;;;16.78;59.63
59190;BME280;50749;51.636;4.948;2024-01-30T08:22:55;102629.00;;;16.77;59.73
59190;BME280;50749;51.636;4.948;2024-01-30T08:25:24;102621.03;;;16.76;59.71
59190;BME280;50749;51.636;4.948;2024-01-30T08:27:53;102619.41;;;16.75;59.52
59190;BME280;50749;51.636;4.948;2024-01-30T08:30:23;102622.47;;;16.73;59.64
59190;BME280;50749;51.636;4.948;2024-01-30T08:32:51;102620.81;;;16.72;59.91
59190;BME280;50749;51.636;4.948;2024-01-30T08:35:20;102615.31;;;16.72;59.78
59190;BME280;50749;51.636;4.948;2024-01-30T08:37:49;102623.88;;;16.70;59.66
59190;BME280;50749;51.636;4.948;2024-01-30T08:40:22;102634.13;;;16.70;59.56
59190;BME280;50749;51.636;4.948;2024-01-30T08:42:51;102630.13;;;16.62;59.35
59190;BME280;50749;51.636;4.948;2024-01-30T08:45:20;102623.50;;;16.63;59.24
59190;BME280;50749;51.636;4.948;2024-01-30T08:47:49;102632.88;;;16.62;59.62
59190;BME280;50749;51.636;4.948;2024-01-30T08:50:18;102637.28;;;16.63;59.79
59190;BME280;50749;51.636;4.948;2024-01-30T08:52:47;102637.59;;;16.62;59.72
59190;BME280;50749;51.636;4.948;2024-01-30T08:55:16;102640.34;;;16.62;59.86
59190;BME280;50749;51.636;4.948;2024-01-30T08:57:47;102648.34;;;16.63;59.85
59190;BME280;50749;51.636;4.948;2024-01-30T09:00:17;102642.31;;;16.61;59.92
59190;BME280;50749;51.636;4.948;2024-01-30T09:02:45;102647.00;;;16.61;59.66
59190;BME280;50749;51.636;4.948;2024-01-30T09:05:15;102650.06;;;16.59;59.66
59190;BME280;50749;51.636;4.948;2024-01-30T09:07:43;102644.53;;;16.59;59.68
59190;BME280;50749;51.636;4.948;2024-01-30T09:10:12;102644.53;;;16.59;60.02
59190;BME280;50749;51.636;4.948;2024-01-30T09:12:41;102652.81;;;16.59;59.95
59190;BME280;50749;51.636;4.948;2024-01-30T09:15:13;102655.91;;;16.58;59.97
59190;BME280;50749;51.636;4.948;2024-01-30T09:17:42;102648.75;;;16.57;59.75
59190;BME280;50749;51.636;4.948;2024-01-30T09:20:11;102656.22;;;16.56;59.70
59190;BME280;50749;51.636;4.948;2024-01-30T09:22:39;102659.28;;;16.55;59.64
59190;BME280;50749;51.636;4.948;2024-01-30T09:25:09;102659.59;;;16.53;60.08
59190;BME280;50749;51.636;4.948;2024-01-30T09:27:37;102657.63;;;16.53;60.11
59190;BME280;50749;51.636;4.948;2024-01-30T09:30:07;102664.28;;;16.52;59.88
59190;BME280;50749;51.636;4.948;2024-01-30T09:32:39;102660.69;;;16.52;60.32
59190;BME280;50749;51.636;4.948;2024-01-30T09:35:08;102661.84;;;16.51;59.82
59190;BME280;50749;51.636;4.948;2024-01-30T09:37:37;102661.00;;;16.50;60.17
59190;BME280;50749;51.636;4.948;2024-01-30T09:40:07;102668.47;;;16.50;59.90
59190;BME280;50749;51.636;4.948;2024-01-30T09:42:36;102668.78;;;16.48;60.16
59190;BME280;50749;51.636;4.948;2024-01-30T09:45:06;102662.75;;;16.46;59.92
59190;BME280;50749;51.636;4.948;2024-01-30T09:47:42;102666.31;;;16.47;60.20
59190;BME280;50749;51.636;4.948;2024-01-30T09:50:13;102669.56;;;16.49;60.05
59190;BME280;50749;51.636;4.948;2024-01-30T09:52:43;102669.06;;;16.47;60.16
59190;BME280;50749;51.636;4.948;2024-01-30T09:55:12;102677.66;;;16.45;60.04
59190;BME280;50749;51.636;4.948;2024-01-30T09:57:42;102672.13;;;16.45;60.31
59190;BME280;50749;51.636;4.948;2024-01-30T10:00:12;102671.31;;;16.45;60.01
59190;BME280;50749;51.636;4.948;2024-01-30T10:02:44;102676.03;;;16.44;60.15
59190;BME280;50749;51.636;4.948;2024-01-30T10:05:15;102678.56;;;16.41;60.18
59190;BME280;50749;51.636;4.948;2024-01-30T10:07:56;102701.19;;;16.43;60.28
59190;BME280;50749;51.636;4.948;2024-01-30T10:10:25;102694.81;;;16.42;60.28
59190;BME280;50749;51.636;4.948;2024-01-30T10:12:54;102677.44;;;16.42;60.09
59190;BME280;50749;51.636;4.948;2024-01-30T10:15:23;102684.06;;;16.41;59.96
59190;BME280;50749;51.636;4.948;2024-01-30T10:17:58;102688.78;;;16.40;60.22
59190;BME280;50749;51.636;4.948;2024-01-30T10:20:27;102679.69;;;16.40;59.90
59190;BME280;50749;51.636;4.948;2024-01-30T10:22:56;102687.97;;;16.40;60.09
59190;BME280;50749;51.636;4.948;2024-01-30T10:25:25;102694.59;;;16.39;60.43
59190;BME280;50749;51.636;4.948;2024-01-30T10:27:54;102693.78;;;16.38;60.12
59190;BME280;50749;51.636;4.948;2024-01-30T10:30:24;102687.47;;;16.38;59.84
59190;BME280;50749;51.636;4.948;2024-01-30T10:32:53;102694.91;;;16.37;59.78
59190;BME280;50749;51.636;4.948;2024-01-30T10:35:25;102696.84;;;16.37;59.91
59190;BME280;50749;51.636;4.948;2024-01-30T10:37:57;102703.19;;;16.37;60.04
59190;BME280;50749;51.636;4.948;2024-01-30T10:40:27;102709.00;;;16.35;59.92
59190;BME280;50749;51.636;4.948;2024-01-30T10:42:56;102707.09;;;16.36;60.04
59190;BME280;50749;51.636;4.948;2024-01-30T10:45:29;102706.25;;;16.35;60.31
59190;BME280;50749;51.636;4.948;2024-01-30T10:47:59;102717.28;;;16.35;60.24
59190;BME280;50749;51.636;4.948;2024-01-30T10:50:32;102707.38;;;16.34;59.90
59190;BME280;50749;51.636;4.948;2024-01-30T10:53:04;102712.91;;;16.34;60.13
59190;BME280;50749;51.636;4.948;2024-01-30T10:55:33;102702.97;;;16.33;60.00
59190;BME280;50749;51.636;4.948;2024-01-30T10:58:03;102704.63;;;16.34;60.16
59190;BME280;50749;51.636;4.948;2024-01-30T11:00:33;102711.75;;;16.35;60.22
59190;BME280;50749;51.636;4.948;2024-01-30T11:03:02;102707.38;;;16.34;60.12
59190;BME280;50749;51.636;4.948;2024-01-30T11:05:34;102707.38;;;16.34;60.49
59190;BME280;50749;51.636;4.948;2024-01-30T11:08:11;102699.72;;;16.31;60.04
59190;BME280;50749;51.636;4.948;2024-01-30T11:10:46;102714.00;;;16.33;60.13
59190;BME280;50749;51.636;4.948;2024-01-30T11:13:15;102700.22;;;16.33;60.34
59190;BME280;50749;51.636;4.948;2024-01-30T11:15:44;102709.63;;;16.32;60.11
59190;BME280;50749;51.636;4.948;2024-01-30T11:18:23;102714.00;;;16.33;60.36
59190;BME280;50749;51.636;4.948;2024-01-30T11:20:56;102706.56;;;16.34;60.23
59190;BME280;50749;51.636;4.948;2024-01-30T11:23:27;102710.16;;;16.34;60.10
59190;BME280;50749;51.636;4.948;2024-01-30T11:25:56;102717.63;;;16.34;60.06
59190;BME280;50749;51.636;4.948;2024-01-30T11:28:32;102719.53;;;16.33;60.08
59190;BME280;50749;51.636;4.948;2024-01-30T11:31:05;102707.69;;;16.33;60.02
59190;BME280;50749;51.636;4.948;2024-01-30T11:33:32;102721.78;;;16.31;60.04
59190;BME280;50749;51.636;4.948;2024-01-30T11:36:04;102722.28;;;16.33;59.87
59190;BME280;50749;51.636;4.948;2024-01-30T11:38:34;102735.28;;;16.33;60.17
59190;BME280;50749;51.636;4.948;2024-01-30T11:41:04;102727.31;;;16.31;60.03
59190;BME280;50749;51.636;4.948;2024-01-30T11:43:33;102734.78;;;16.31;60.04
59190;BME280;50749;51.636;4.948;2024-01-30T11:46:05;102748.28;;;16.32;59.85
59190;BME280;50749;51.636;4.948;2024-01-30T11:48:35;102735.59;;;16.31;59.88
59190;BME280;50749;51.636;4.948;2024-01-30T11:51:07;102735.88;;;16.30;60.06
59190;BME280;50749;51.636;4.948;2024-01-30T11:53:36;102738.34;;;16.31;59.93
59190;BME280;50749;51.636;4.948;2024-01-30T11:56:06;102744.97;;;16.30;59.94
59190;BME280;50749;51.636;4.948;2024-01-30T11:58:35;102737.53;;;16.31;59.97
59190;BME280;50749;51.636;4.948;2024-01-30T12:01:04;102757.66;;;16.31;59.95
59190;BME280;50749;51.636;4.948;2024-01-30T12:03:33;102738.66;;;16.30;59.79
59190;BME280;50749;51.636;4.948;2024-01-30T12:06:03;102757.16;;;16.29;60.00
59190;BME280;50749;51.636;4.948;2024-01-30T12:08:34;102757.66;;;16.31;59.93
59190;BME280;50749;51.636;4.948;2024-01-30T12:11:06;102755.22;;;16.30;60.17
59190;BME280;50749;51.636;4.948;2024-01-30T12:13:35;102755.28;;;16.25;59.76
59190;BME280;50749;51.636;4.948;2024-01-30T12:16:05;102753.03;;;16.27;60.03
59190;BME280;50749;51.636;4.948;2024-01-30T12:18:34;102764.91;;;16.27;59.97
59190;BME280;50749;51.636;4.948;2024-01-30T12:21:03;102772.88;;;16.29;59.61
59190;BME280;50749;51.636;4.948;2024-01-30T12:23:36;102779.53;;;16.28;59.71
59190;BME280;50749;51.636;4.948;2024-01-30T12:26:06;102773.19;;;16.27;59.56
59190;BME280;50749;51.636;4.948;2024-01-30T12:28:34;102760.50;;;16.26;59.83
59190;BME280;50749;51.636;4.948;2024-01-30T12:31:04;102770.44;;;16.27;59.72
59190;BME280;50749;51.636;4.948;2024-01-30T12:33:32;102776.25;;;16.26;59.43
59190;BME280;50749;51.636;4.948;2024-01-30T12:36:02;102783.69;;;16.25;59.07
59190;BME280;50749;51.636;4.948;2024-01-30T12:38:31;102791.47;;;16.23;59.27
59190;BME280;50749;51.636;4.948;2024-01-30T12:41:03;102789.22;;;16.25;59.37
59190;BME280;50749;51.636;4.948;2024-01-30T12:43:31;102788.69;;;16.23;59.21
59190;BME280;50749;51.636;4.948;2024-01-30T12:46:01;102802.50;;;16.23;59.35
59190;BME280;50749;51.636;4.948;2024-01-30T12:48:29;102793.41;;;16.23;58.97
59190;BME280;50749;51.636;4.948;2024-01-30T12:50:58;102792.56;;;16.22;59.05
59190;BME280;50749;51.636;4.948;2024-01-30T12:53:27;102795.31;;;16.22;58.92
59190;BME280;50749;51.636;4.948;2024-01-30T12:55:56;102803.59;;;16.22;58.94
59190;BME280;50749;51.636;4.948;2024-01-30T12:58:27;102806.38;;;16.22;59.26
59190;BME280;50749;51.636;4.948;2024-01-30T13:00:56;102809.13;;;16.22;58.99
59190;BME280;50749;51.636;4.948;2024-01-30T13:03:25;102816.88;;;16.20;58.99